Time;durP1;ratioP1;P1;durP2;ratioP2;P2;SDS_P1;SDS_P2;PMS_P1;PMS_P2;Temp;Humidity;BMP_temperature;BMP_pressure;BME280_temperature;BME280_humidity;BME280_pressure;Samples;Min_cycle;Max_cycle;Signal;HPM_P1;HPM_P2
2024/02/12 00:02:19;;;;;;;4.10;2.53;;;13.00;59.20;;;;;;5074931;28;20060;-61
2024/02/12 00:04:48;;;;;;;4.93;2.65;;;13.00;59.30;;;;;;5070677;28;20052;-59
2024/02/12 00:07:18;;;;;;;4.28;2.70;;;12.90;59.30;;;;;;5073039;28;20084;-64
2024/02/12 00:09:47;;;;;;;4.60;2.20;;;12.90;59.50;;;;;;5043403;28;20044;-65
2024/02/12 00:12:16;;;;;;;3.65;2.03;;;12.80;59.90;;;;;;5071934;28;20056;-64
2024/02/12 00:14:46;;;;;;;5.88;2.88;;;12.70;59.40;;;;;;5071814;28;20140;-60
2024/02/12 00:17:14;;;;;;;4.93;2.78;;;12.70;59.40;;;;;;5068131;28;20151;-61
2024/02/12 00:19:43;;;;;;;7.18;2.85;;;12.70;59.50;;;;;;5075295;28;20097;-64
2024/02/12 00:22:12;;;;;;;3.55;2.40;;;12.70;59.50;;;;;;5072429;28;20075;-62
2024/02/12 00:24:41;;;;;;;127.45;39.40;;;12.80;59.50;;;;;;5072467;28;20060;-61
2024/02/12 00:27:09;;;;;;;26.50;9.23;;;12.80;59.40;;;;;;5062867;28;21301;-60
2024/02/12 00:29:39;;;;;;;4.22;2.78;;;12.90;59.50;;;;;;5069427;28;20048;-61
2024/02/12 00:32:09;;;;;;;9.30;4.63;;;12.90;59.40;;;;;;5073733;28;20147;-62
2024/02/12 00:34:38;;;;;;;10.27;4.50;;;12.90;59.30;;;;;;5072842;28;20498;-62
2024/02/12 00:37:06;;;;;;;110.00;31.95;;;13.00;59.40;;;;;;5042655;28;20961;-61
2024/02/12 00:39:34;;;;;;;9.10;4.15;;;13.00;59.40;;;;;;5071469;28;20060;-61
2024/02/12 00:42:08;;;;;;;17.58;6.50;;;13.00;59.30;;;;;;5068550;28;20056;-60
2024/02/12 00:44:40;;;;;;;4.28;2.55;;;13.00;59.30;;;;;;5066614;28;20068;-62
2024/02/12 00:47:09;;;;;;;12.63;3.72;;;13.00;59.30;;;;;;5061850;28;21110;-63
2024/02/12 00:49:39;;;;;;;15.27;4.38;;;13.10;59.30;;;;;;5055981;28;20494;-62
2024/02/12 00:52:08;;;;;;;17.00;6.60;;;13.10;59.30;;;;;;5056896;28;20052;-62
2024/02/12 00:54:39;;;;;;;24.63;8.88;;;13.10;59.30;;;;;;5065533;28;20499;-61
2024/02/12 00:57:09;;;;;;;15.52;4.88;;;13.00;59.20;;;;;;5067178;28;22077;-61
2024/02/12 00:59:40;;;;;;;5.53;2.78;;;13.00;59.20;;;;;;5074844;28;20087;-61
2024/02/12 01:02:10;;;;;;;9.50;3.33;;;13.00;59.60;;;;;;5073872;28;20649;-61
2024/02/12 01:04:39;;;;;;;7.53;3.13;;;12.90;59.30;;;;;;5065710;28;20051;-61
2024/02/12 01:07:07;;;;;;;5.80;3.00;;;12.90;59.30;;;;;;5064751;28;20051;-60
2024/02/12 01:09:36;;;;;;;12.40;5.43;;;12.80;59.30;;;;;;5066022;28;20068;-62
2024/02/12 01:12:05;;;;;;;12.20;3.88;;;12.80;59.30;;;;;;5072399;28;20167;-60
2024/02/12 01:14:33;;;;;;;11.18;4.22;;;12.80;59.40;;;;;;5069578;28;20059;-61
2024/02/12 01:17:04;;;;;;;3.33;2.22;;;12.80;59.40;;;;;;5052621;28;20627;-62
2024/02/12 01:19:36;;;;;;;11.88;4.88;;;12.80;59.30;;;;;;5062293;28;20491;-61
2024/02/12 01:22:05;;;;;;;4.30;2.78;;;12.70;59.30;;;;;;5073614;28;20075;-60
2024/02/12 01:24:33;;;;;;;23.90;8.52;;;12.70;59.40;;;;;;5073330;28;20826;-62
2024/02/12 01:27:02;;;;;;;17.73;8.40;;;12.80;59.40;;;;;;5063436;28;20151;-60
2024/02/12 01:29:31;;;;;;;3.42;2.05;;;12.80;59.50;;;;;;5063456;28;20056;-61
2024/02/12 01:32:00;;;;;;;7.50;3.30;;;12.80;59.30;;;;;;5074322;28;20066;-67
2024/02/12 01:34:30;;;;;;;4.70;3.05;;;12.90;59.70;;;;;;5073564;28;20052;-62
2024/02/12 01:36:58;;;;;;;19.60;4.97;;;12.70;59.40;;;;;;5051522;28;20076;-59
2024/02/12 01:39:26;;;;;;;7.70;3.28;;;12.80;59.50;;;;;;5077124;28;20058;-60
2024/02/12 01:41:55;;;;;;;36.13;13.32;;;12.80;59.50;;;;;;5068711;28;20056;-61
2024/02/12 01:44:23;;;;;;;5.78;2.70;;;12.80;59.40;;;;;;5071218;28;20142;-60
2024/02/12 01:46:51;;;;;;;5.38;2.50;;;12.80;59.30;;;;;;5061610;28;20052;-60
2024/02/12 01:49:21;;;;;;;23.25;7.15;;;12.90;59.30;;;;;;5072883;28;20075;-60
2024/02/12 01:51:51;;;;;;;22.70;8.68;;;12.90;59.20;;;;;;5073322;28;20052;-62
2024/02/12 01:54:20;;;;;;;33.45;11.85;;;12.90;59.30;;;;;;5074385;28;20054;-62
2024/02/12 01:56:49;;;;;;;3.78;1.98;;;12.90;59.30;;;;;;5073930;28;20056;-59
2024/02/12 01:59:18;;;;;;;3.60;2.53;;;12.80;59.20;;;;;;5076257;28;20052;-59
2024/02/12 02:01:47;;;;;;;18.67;6.50;;;12.80;59.20;;;;;;5072067;28;20648;-61
2024/02/12 02:04:17;;;;;;;3.75;2.70;;;12.80;59.20;;;;;;5066065;28;20074;-60
2024/02/12 02:06:55;;;;;;;26.23;9.27;;;12.70;59.20;;;;;;5072021;28;20083;-60
2024/02/12 02:09:23;;;;;;;6.22;2.63;;;12.70;59.30;;;;;;5070766;28;20536;-59
2024/02/12 02:11:51;;;;;;;53.38;18.73;;;12.70;59.20;;;;;;5069785;28;20063;-67
2024/02/12 02:14:20;;;;;;;5.72;2.83;;;12.70;59.30;;;;;;5071946;28;20097;-61
2024/02/12 02:16:49;;;;;;;4.13;2.53;;;12.80;59.30;;;;;;5072091;28;20152;-62
2024/02/12 02:19:17;;;;;;;14.00;5.97;;;12.80;59.30;;;;;;5049589;28;20052;-61
2024/02/12 02:21:45;;;;;;;4.85;2.70;;;12.80;59.30;;;;;;5067728;28;20059;-61
2024/02/12 02:24:18;;;;;;;4.88;2.95;;;12.90;59.20;;;;;;5076433;28;20051;-61
2024/02/12 02:26:46;;;;;;;7.50;2.88;;;12.90;59.10;;;;;;5067240;28;20055;-60
2024/02/12 02:29:15;;;;;;;7.05;2.97;;;12.90;59.00;;;;;;5069686;28;20064;-59
2024/02/12 02:31:43;;;;;;;16.60;4.38;;;12.90;59.70;;;;;;5071923;28;20063;-60
2024/02/12 02:34:11;;;;;;;6.65;2.70;;;12.80;59.00;;;;;;5053974;28;20071;-60
2024/02/12 02:36:46;;;;;;;16.10;6.45;;;12.80;59.10;;;;;;5074924;28;20063;-61
2024/02/12 02:39:16;;;;;;;4.30;2.47;;;12.80;59.10;;;;;;5061099;28;20194;-59
2024/02/12 02:41:45;;;;;;;4.13;2.55;;;12.80;59.30;;;;;;5074317;28;20066;-61
2024/02/12 02:44:16;;;;;;;3.22;1.98;;;12.80;59.30;;;;;;5072895;28;20113;-60
2024/02/12 02:46:45;;;;;;;3.50;2.38;;;12.80;59.20;;;;;;5074713;28;20528;-60
2024/02/12 02:49:14;;;;;;;33.42;10.38;;;12.80;59.20;;;;;;5064827;28;20063;-59
2024/02/12 02:51:43;;;;;;;4.57;2.67;;;12.80;59.20;;;;;;5076623;28;20089;-60
2024/02/12 02:54:12;;;;;;;16.30;5.40;;;12.90;59.20;;;;;;5071519;28;20067;-60
2024/02/12 02:56:42;;;;;;;4.55;2.72;;;12.90;59.10;;;;;;5073322;28;20070;-59
2024/02/12 02:59:10;;;;;;;12.23;4.22;;;12.90;59.10;;;;;;5067117;28;20162;-60
2024/02/12 03:01:39;;;;;;;2.38;2.10;;;12.80;59.10;;;;;;5060217;28;20133;-64
2024/02/12 03:04:07;;;;;;;6.25;2.78;;;12.80;59.10;;;;;;5053206;28;20054;-59
2024/02/12 03:06:37;;;;;;;4.65;2.22;;;12.80;59.10;;;;;;5073959;28;20143;-59
2024/02/12 03:09:07;;;;;;;4.50;3.28;;;12.80;59.00;;;;;;5070606;28;20156;-59
2024/02/12 03:11:37;;;;;;;3.83;2.20;;;12.80;59.10;;;;;;5069519;28;20068;-57
2024/02/12 03:14:08;;;;;;;4.53;2.33;;;12.80;59.20;;;;;;5070191;28;20055;-60
2024/02/12 03:16:37;;;;;;;6.25;2.97;;;12.80;59.10;;;;;;5054775;28;20663;-61
2024/02/12 03:19:06;;;;;;;4.07;1.88;;;12.90;59.10;;;;;;5065616;28;20063;-58
2024/02/12 03:21:34;;;;;;;5.85;2.53;;;12.80;59.00;;;;;;5070055;28;20390;-60
2024/02/12 03:24:03;;;;;;;5.40;2.33;;;12.80;59.60;;;;;;5067679;28;20464;-61
2024/02/12 03:26:31;;;;;;;2.60;1.88;;;12.90;59.10;;;;;;5077306;28;20063;-60
2024/02/12 03:29:00;;;;;;;3.10;2.35;;;12.80;59.00;;;;;;5075701;28;20063;-58
2024/02/12 03:31:30;;;;;;;4.60;2.50;;;12.90;59.00;;;;;;5069554;28;21025;-59
2024/02/12 03:33:58;;;;;;;3.25;2.10;;;12.90;58.90;;;;;;5076271;28;20064;-60
2024/02/12 03:36:26;;;;;;;6.20;2.95;;;12.90;59.00;;;;;;5072991;28;20143;-59
2024/02/12 03:38:55;;;;;;;8.10;2.80;;;12.80;59.00;;;;;;5077654;28;20051;-63
2024/02/12 03:41:25;;;;;;;10.65;4.20;;;12.80;59.00;;;;;;5061399;28;20307;-60
2024/02/12 03:43:54;;;;;;;6.18;3.05;;;12.80;59.00;;;;;;5058567;28;20070;-58
2024/02/12 03:46:28;;;;;;;5.50;1.92;;;12.80;59.00;;;;;;5051642;28;20057;-58
2024/02/12 04:00:01;;;;;;;6.72;2.80;;;12.70;59.10;;;;;;5051438;28;20073;-61
2024/02/12 04:02:39;;;;;;;16.63;3.38;;;12.70;59.10;;;;;;5046898;28;20083;-59
2024/02/12 04:05:09;;;;;;;6.65;3.17;;;12.70;59.10;;;;;;5051681;28;20477;-58
2024/02/12 04:07:38;;;;;;;5.55;3.00;;;12.70;59.10;;;;;;5049249;28;20139;-58
2024/02/12 04:10:10;;;;;;;4.22;2.85;;;12.70;59.00;;;;;;5044962;28;20499;-58
2024/02/12 04:12:42;;;;;;;3.75;1.90;;;12.70;59.00;;;;;;5028712;28;20052;-60
2024/02/12 04:15:13;;;;;;;23.90;2.72;;;12.70;58.90;;;;;;5038817;28;20054;-58
2024/02/12 04:17:42;;;;;;;5.38;2.70;;;12.70;58.90;;;;;;5048084;28;20079;-60
2024/02/12 04:20:18;;;;;;;10.65;2.78;;;12.70;58.90;;;;;;5038134;28;20061;-60
2024/02/12 04:22:47;;;;;;;2.63;2.10;;;12.60;58.90;;;;;;5052698;28;20060;-59
2024/02/12 04:25:19;;;;;;;5.05;2.45;;;12.60;58.90;;;;;;5051849;28;20107;-59
2024/02/12 04:27:49;;;;;;;3.58;2.42;;;12.60;58.90;;;;;;5052189;28;20145;-60
2024/02/12 04:30:18;;;;;;;9.02;2.45;;;12.50;59.20;;;;;;5045555;28;20068;-59
2024/02/12 04:32:47;;;;;;;5.20;3.00;;;12.60;59.10;;;;;;5035436;28;20076;-61
2024/02/12 04:35:17;;;;;;;4.70;2.13;;;12.60;59.10;;;;;;5051744;28;20059;-58
2024/02/12 04:37:45;;;;;;;3.45;2.15;;;12.60;59.00;;;;;;5051363;28;20714;-59
2024/02/12 04:40:13;;;;;;;2.40;1.90;;;12.60;59.00;;;;;;5043880;28;20137;-60
2024/02/12 04:42:42;;;;;;;2.90;1.98;;;12.60;59.20;;;;;;5057446;28;20087;-60
2024/02/12 04:45:11;;;;;;;4.32;2.25;;;12.50;59.00;;;;;;5072461;28;20550;-58
2024/02/12 04:47:39;;;;;;;4.28;2.30;;;12.50;59.10;;;;;;5074335;28;20045;-59
2024/02/12 04:50:09;;;;;;;9.70;3.05;;;12.50;59.10;;;;;;5075718;28;20048;-59
2024/02/12 04:52:39;;;;;;;4.63;2.55;;;12.50;59.00;;;;;;5067555;28;20060;-59
2024/02/12 04:55:10;;;;;;;4.40;2.53;;;12.50;59.00;;;;;;5071269;28;20524;-56
2024/02/12 04:57:38;;;;;;;6.65;2.17;;;12.50;59.00;;;;;;5058477;28;20040;-59
2024/02/12 05:00:10;;;;;;;9.10;2.25;;;12.60;59.10;;;;;;5060580;28;20067;-60
2024/02/12 05:02:40;;;;;;;4.15;2.72;;;12.60;59.00;;;;;;5069484;28;20062;-59
2024/02/12 05:05:11;;;;;;;3.55;2.20;;;12.60;58.90;;;;;;5075850;28;20066;-57
2024/02/12 05:07:42;;;;;;;5.72;3.10;;;12.60;59.00;;;;;;5073070;28;20076;-58
2024/02/12 05:10:10;;;;;;;6.20;2.65;;;12.60;58.90;;;;;;5076037;28;20048;-59
2024/02/12 05:12:38;;;;;;;12.98;5.18;;;12.60;58.90;;;;;;5069468;28;20051;-59
2024/02/12 05:15:09;;;;;;;6.72;3.42;;;12.70;58.90;;;;;;5063710;28;20870;-59
2024/02/12 05:17:52;;;;;;;4.07;1.88;;;12.60;58.90;;;;;;5073622;28;20060;-60
2024/02/12 05:23:09;;;;;;;;;;;12.60;59.10;;;;;;5068370;28;20555;-58
2024/02/12 05:25:38;;;;;;;10.93;4.00;;;12.60;58.90;;;;;;5059890;28;19969;-58
2024/02/12 05:28:07;;;;;;;11.48;2.22;;;12.60;58.90;;;;;;5065355;28;20830;-60
2024/02/12 05:30:36;;;;;;;7.55;2.40;;;12.50;58.80;;;;;;5071500;28;20752;-61
2024/02/12 05:33:06;;;;;;;9.50;2.15;;;12.50;59.00;;;;;;5063259;28;20080;-56
2024/02/12 05:35:36;;;;;;;2.53;2.00;;;12.50;59.00;;;;;;5054563;28;20047;-58
2024/02/12 05:38:04;;;;;;;9.73;2.17;;;12.60;59.00;;;;;;5070464;28;20082;-59
2024/02/12 05:40:34;;;;;;;4.18;2.30;;;12.60;59.00;;;;;;5073440;28;20129;-58
2024/02/12 05:43:03;;;;;;;5.53;2.20;;;12.60;59.70;;;;;;5072718;28;20078;-59
2024/02/12 05:45:31;;;;;;;3.53;2.47;;;12.50;58.80;;;;;;5068799;28;20520;-56
2024/02/12 05:47:59;;;;;;;13.82;2.80;;;12.50;58.90;;;;;;5071035;28;20148;-59
2024/02/12 05:50:28;;;;;;;5.82;3.22;;;12.40;59.10;;;;;;5076809;28;20131;-58
2024/02/12 05:52:56;;;;;;;4.65;2.88;;;12.40;59.00;;;;;;5078263;28;20064;-59
2024/02/12 05:55:25;;;;;;;3.25;2.58;;;12.40;59.00;;;;;;5073158;28;20049;-51
2024/02/12 05:57:55;;;;;;;9.93;3.28;;;12.40;59.00;;;;;;5061297;28;20507;-54
2024/02/12 06:00:24;;;;;;;16.90;3.30;;;12.50;59.00;;;;;;5070078;28;20059;-58
2024/02/12 06:02:52;;;;;;;9.40;2.90;;;12.50;58.80;;;;;;5067437;28;21255;-57
2024/02/12 06:05:20;;;;;;;5.10;2.53;;;12.60;58.80;;;;;;5074221;28;20048;-59
2024/02/12 06:07:49;;;;;;;4.22;2.72;;;12.70;58.60;;;;;;5068928;28;20114;-59
2024/02/12 06:10:17;;;;;;;5.32;2.35;;;12.80;58.50;;;;;;5064381;28;20067;-56
2024/02/12 06:12:46;;;;;;;4.65;2.53;;;12.90;58.40;;;;;;5073309;28;20109;-59
2024/02/12 06:15:15;;;;;;;2.70;2.10;;;13.00;58.30;;;;;;5073627;28;20070;-59
2024/02/12 06:17:44;;;;;;;11.90;3.53;;;13.00;58.10;;;;;;5069903;28;20063;-55
2024/02/12 06:20:13;;;;;;;3.10;2.20;;;13.00;58.00;;;;;;5067778;28;20071;-56
2024/02/12 06:22:42;;;;;;;3.03;2.20;;;13.10;58.10;;;;;;5064249;28;20580;-59
2024/02/12 06:25:13;;;;;;;2.35;2.15;;;13.10;58.00;;;;;;5075592;28;20056;-58
2024/02/12 06:27:44;;;;;;;7.63;2.88;;;13.20;58.00;;;;;;5069765;28;20139;-58
2024/02/12 06:30:13;;;;;;;5.95;3.08;;;13.20;57.90;;;;;;5071491;28;20068;-61
2024/02/12 06:32:43;;;;;;;7.07;3.30;;;13.20;57.90;;;;;;5071148;28;20075;-61
2024/02/12 06:35:12;;;;;;;7.72;2.97;;;13.20;57.80;;;;;;5062905;28;20157;-60
2024/02/12 06:37:40;;;;;;;6.43;2.72;;;13.30;57.80;;;;;;5067021;28;20069;-58
2024/02/12 06:40:10;;;;;;;4.30;2.67;;;13.30;57.80;;;;;;5064211;28;20139;-57
2024/02/12 06:42:42;;;;;;;6.60;2.78;;;13.30;57.80;;;;;;5029953;28;20570;-62
2024/02/12 06:45:11;;;;;;;7.30;2.58;;;13.30;57.80;;;;;;5063604;28;20055;-65
2024/02/12 06:47:40;;;;;;;5.30;2.58;;;13.40;58.60;;;;;;5056666;28;20059;-64
2024/02/12 06:50:12;;;;;;;4.78;2.75;;;13.50;57.80;;;;;;5079497;28;20364;-62
2024/02/12 06:52:41;;;;;;;7.05;2.97;;;13.50;57.70;;;;;;5064523;28;20072;-63
2024/02/12 06:55:10;;;;;;;7.25;3.55;;;13.40;57.60;;;;;;5083796;28;20055;-65
2024/02/12 06:57:39;;;;;;;4.53;2.65;;;13.40;57.60;;;;;;5076981;28;20064;-68
2024/02/12 07:00:08;;;;;;;3.40;2.70;;;13.40;57.60;;;;;;5053654;28;20052;-72
2024/02/12 07:02:37;;;;;;;6.80;3.13;;;13.30;57.60;;;;;;5062807;28;20133;-64
2024/02/12 07:05:06;;;;;;;4.88;3.10;;;13.30;57.60;;;;;;5063678;28;20070;-65
2024/02/12 07:07:37;;;;;;;7.70;2.15;;;13.30;57.60;;;;;;5067032;28;20084;-67
2024/02/12 07:10:06;;;;;;;8.52;2.28;;;13.20;57.70;;;;;;5077968;28;20138;-65
2024/02/12 07:12:35;;;;;;;3.72;2.45;;;13.10;57.90;;;;;;5061185;28;20082;-64
2024/02/12 07:15:03;;;;;;;4.63;2.30;;;13.10;58.00;;;;;;5053378;28;20058;-67
2024/02/12 07:17:32;;;;;;;10.10;6.03;;;13.10;58.00;;;;;;5074478;28;20060;-72
2024/02/12 07:20:02;;;;;;;9.95;3.88;;;13.20;58.00;;;;;;5054844;28;20052;-68
2024/02/12 07:22:30;;;;;;;5.30;3.53;;;13.20;58.00;;;;;;5050773;28;20098;-68
2024/02/12 07:25:00;;;;;;;6.82;3.30;;;13.30;58.00;;;;;;5073232;28;20059;-68
2024/02/12 07:27:28;;;;;;;3.40;2.30;;;13.40;57.90;;;;;;5069079;28;20060;-67
2024/02/12 07:29:57;;;;;;;8.55;2.58;;;13.50;57.80;;;;;;5041775;28;20516;-71
2024/02/12 07:32:25;;;;;;;2.33;2.08;;;13.50;57.70;;;;;;5075269;28;20047;-71
2024/02/12 07:34:54;;;;;;;3.60;2.05;;;13.60;57.70;;;;;;5079563;28;20058;-82
2024/02/12 07:37:23;;;;;;;2.58;2.08;;;13.60;57.50;;;;;;5074868;28;20071;-70
2024/02/12 07:39:51;;;;;;;3.97;2.08;;;13.60;57.50;;;;;;5073285;28;20048;-68
2024/02/12 07:42:21;;;;;;;3.13;2.00;;;13.70;57.50;;;;;;5070532;28;20052;-67
2024/02/12 07:44:49;;;;;;;7.03;2.53;;;13.70;57.40;;;;;;5077489;28;20137;-75
2024/02/12 07:47:19;;;;;;;6.45;2.13;;;13.70;57.30;;;;;;5081191;28;20064;-71
2024/02/12 07:49:48;;;;;;;3.20;2.15;;;13.70;57.40;;;;;;5081580;28;20226;-66
2024/02/12 07:52:16;;;;;;;2.90;1.70;;;13.80;57.40;;;;;;5064897;28;20059;-65
2024/02/12 07:54:45;;;;;;;2.58;1.60;;;13.80;57.40;;;;;;5065535;28;20468;-62
2024/02/12 07:57:14;;;;;;;16.67;5.10;;;13.80;57.30;;;;;;5054355;28;20048;-62
2024/02/12 07:59:44;;;;;;;5.47;2.30;;;13.80;57.20;;;;;;5066089;28;20083;-63
2024/02/12 08:02:13;;;;;;;3.13;2.20;;;13.80;57.20;;;;;;5063443;28;20170;-68
2024/02/12 08:04:41;;;;;;;3.35;1.77;;;13.80;57.20;;;;;;5047376;28;20133;-63
2024/02/12 08:07:12;;;;;;;3.10;2.15;;;13.90;57.20;;;;;;5063066;28;20071;-64
2024/02/12 08:09:41;;;;;;;4.28;1.60;;;14.00;57.20;;;;;;5050243;28;20163;-64
2024/02/12 08:12:09;;;;;;;4.18;1.83;;;14.10;57.10;;;;;;5064450;28;20060;-68
2024/02/12 08:14:40;;;;;;;5.22;1.75;;;14.20;57.00;;;;;;5060364;28;20131;-66
2024/02/12 08:17:10;;;;;;;3.95;2.35;;;14.20;56.90;;;;;;5064082;28;20135;-60
2024/02/12 08:19:41;;;;;;;3.97;1.80;;;14.30;56.90;;;;;;5047251;28;20057;-66
2024/02/12 08:22:10;;;;;;;3.35;2.15;;;14.40;56.90;;;;;;5056763;28;20169;-61
2024/02/12 08:24:39;;;;;;;5.40;1.83;;;14.50;56.80;;;;;;5057831;28;20056;-64
2024/02/12 08:27:08;;;;;;;2.95;2.10;;;14.60;56.70;;;;;;5041931;28;20810;-67
2024/02/12 08:29:36;;;;;;;6.30;2.80;;;14.60;56.60;;;;;;5062124;28;20137;-67
2024/02/12 08:32:05;;;;;;;4.53;2.20;;;14.70;56.60;;;;;;5061593;28;20099;-63
2024/02/12 08:34:40;;;;;;;8.50;2.50;;;14.80;56.70;;;;;;5062867;28;20068;-69
2024/02/12 08:37:08;;;;;;;5.38;1.85;;;14.90;56.50;;;;;;5065482;28;20055;-67
2024/02/12 08:39:37;;;;;;;8.93;2.67;;;15.00;57.00;;;;;;5061631;28;20056;-66
2024/02/12 08:42:06;;;;;;;12.60;2.42;;;15.10;56.20;;;;;;5066088;28;20056;-64
2024/02/12 08:44:34;;;;;;;13.20;2.38;;;15.20;56.20;;;;;;5065889;28;20073;-62
2024/02/12 08:47:03;;;;;;;13.85;3.15;;;15.30;56.10;;;;;;5062747;28;20109;-65
2024/02/12 08:49:32;;;;;;;23.17;2.53;;;15.40;56.60;;;;;;5061139;28;20181;-68
2024/02/12 08:52:02;;;;;;;23.55;2.75;;;15.60;56.00;;;;;;5061438;28;20553;-70
2024/02/12 08:54:31;;;;;;;3.33;1.90;;;15.70;55.80;;;;;;5045326;28;20057;-69
2024/02/12 08:56:59;;;;;;;7.72;2.30;;;15.90;55.70;;;;;;5058892;28;20056;-66
2024/02/12 08:59:27;;;;;;;3.05;1.80;;;15.90;55.40;;;;;;5048107;28;20056;-63
2024/02/12 09:01:56;;;;;;;26.35;2.88;;;15.90;55.30;;;;;;5060062;28;20064;-63
2024/02/12 09:04:25;;;;;;;2.45;1.48;;;15.80;55.20;;;;;;5036197;28;20048;-62
2024/02/12 09:06:53;;;;;;;2.47;1.95;;;15.80;55.30;;;;;;5041208;28;20074;-60
2024/02/12 09:09:23;;;;;;;14.60;2.00;;;15.70;55.30;;;;;;5061804;28;20072;-62
2024/02/12 09:11:51;;;;;;;2.65;1.50;;;15.50;55.30;;;;;;5057793;28;20051;-63
2024/02/12 09:14:20;;;;;;;12.32;1.98;;;15.40;55.20;;;;;;5060874;28;20504;-60
2024/02/12 09:16:50;;;;;;;4.32;2.08;;;15.20;55.30;;;;;;5053676;28;20052;-64
2024/02/12 09:19:18;;;;;;;22.15;2.80;;;15.00;55.40;;;;;;5057240;28;20288;-62
2024/02/12 09:21:47;;;;;;;10.82;1.77;;;14.90;55.60;;;;;;5060296;28;20379;-62
2024/02/12 09:24:16;;;;;;;4.68;1.80;;;14.90;55.70;;;;;;5062656;28;20068;-64
2024/02/12 09:26:45;;;;;;;2.75;2.05;;;14.90;55.80;;;;;;5056520;28;20677;-59
2024/02/12 09:29:14;;;;;;;3.33;1.65;;;14.90;55.70;;;;;;5059461;28;20076;-61
2024/02/12 09:31:42;;;;;;;5.20;2.20;;;14.80;55.60;;;;;;5057249;28;20130;-61
2024/02/12 09:34:11;;;;;;;2.40;1.63;;;14.80;55.80;;;;;;5065326;28;20060;-61
2024/02/12 09:36:42;;;;;;;17.90;2.20;;;14.90;55.90;;;;;;5050380;28;20387;-64
2024/02/12 09:39:10;;;;;;;3.55;1.70;;;15.00;55.80;;;;;;5051325;28;21693;-61
2024/02/12 09:41:39;;;;;;;5.28;2.08;;;15.10;55.70;;;;;;5060141;28;20081;-60
2024/02/12 09:44:12;;;;;;;2.95;1.80;;;15.20;55.60;;;;;;5072694;28;20438;-61
2024/02/12 09:46:46;;;;;;;21.38;2.47;;;15.20;55.60;;;;;;5074876;28;20110;-60
2024/02/12 09:49:16;;;;;;;10.10;3.33;;;15.30;55.50;;;;;;5044412;28;20044;-62
2024/02/12 09:51:46;;;;;;;8.93;2.25;;;15.40;55.50;;;;;;5041157;28;20055;-60
2024/02/12 09:54:16;;;;;;;5.35;2.15;;;15.50;55.40;;;;;;5076715;28;20480;-64
2024/02/12 09:56:45;;;;;;;8.18;1.85;;;15.50;55.30;;;;;;5049877;28;20051;-62
2024/02/12 09:59:14;;;;;;;1.98;1.42;;;15.50;55.10;;;;;;5073986;28;20145;-64
2024/02/12 10:01:43;;;;;;;16.40;2.30;;;15.50;55.10;;;;;;5073344;28;20105;-65
2024/02/12 10:04:11;;;;;;;15.60;2.42;;;15.50;55.20;;;;;;5070099;28;20080;-62
2024/02/12 10:06:40;;;;;;;21.48;2.65;;;15.50;55.20;;;;;;5075572;28;20056;-61
2024/02/12 10:09:12;;;;;;;4.45;2.10;;;15.50;55.00;;;;;;5066897;28;20059;-60
2024/02/12 10:11:41;;;;;;;7.88;1.90;;;15.30;54.90;;;;;;5068403;28;20173;-67
2024/02/12 10:14:12;;;;;;;11.38;1.90;;;15.30;55.10;;;;;;5034271;28;20054;-59
2024/02/12 10:16:44;;;;;;;2.75;1.60;;;15.30;55.30;;;;;;5069069;28;20060;-60
2024/02/12 10:19:12;;;;;;;7.68;2.20;;;15.30;55.00;;;;;;5053207;28;20080;-60
2024/02/12 10:21:40;;;;;;;4.28;1.98;;;15.30;55.20;;;;;;5058330;28;20325;-60
2024/02/12 10:24:10;;;;;;;3.92;1.90;;;15.50;55.50;;;;;;5067770;28;20614;-66
2024/02/12 10:26:39;;;;;;;7.75;2.25;;;15.40;55.20;;;;;;5074739;28;20076;-61
2024/02/12 10:29:10;;;;;;;4.30;1.73;;;15.40;55.20;;;;;;5063611;28;20085;-65
2024/02/12 10:31:39;;;;;;;2.42;1.70;;;15.50;55.20;;;;;;5062609;28;20187;-62
2024/02/12 10:34:10;;;;;;;4.22;1.85;;;15.60;55.10;;;;;;5071372;28;20068;-64
2024/02/12 10:36:44;;;;;;;3.60;2.00;;;15.50;54.80;;;;;;5068985;28;20044;-63
2024/02/12 10:39:16;;;;;;;5.18;1.83;;;15.50;55.20;;;;;;5046971;28;20074;-61
2024/02/12 10:41:50;;;;;;;2.20;1.52;;;15.60;55.30;;;;;;5067919;28;20425;-63
2024/02/12 10:44:19;;;;;;;4.85;1.52;;;15.80;55.10;;;;;;5074105;28;20051;-62
2024/02/12 10:46:49;;;;;;;4.43;1.95;;;15.90;55.00;;;;;;5069154;28;20059;-62
2024/02/12 10:49:19;;;;;;;5.47;1.70;;;16.10;54.80;;;;;;5071884;28;20048;-64
2024/02/12 10:51:54;;;;;;;3.50;0.85;;;16.20;54.70;;;;;;5048961;28;20476;-64
2024/02/12 10:54:23;;;;;;;1.17;1.00;;;16.30;54.50;;;;;;5076222;28;20976;-64
2024/02/12 10:56:51;;;;;;;1.30;1.02;;;16.20;54.30;;;;;;5070676;28;20071;-63
2024/02/12 10:59:20;;;;;;;3.05;0.93;;;16.20;54.20;;;;;;5076771;28;20060;-65
2024/02/12 11:01:50;;;;;;;12.48;1.67;;;16.30;54.30;;;;;;5075605;28;20095;-67
2024/02/12 11:04:26;;;;;;;6.55;1.30;;;16.40;54.30;;;;;;5074480;28;20452;-64
2024/02/12 11:07:09;;;;;;;3.05;0.80;;;16.40;54.20;;;;;;5054052;28;20043;-62
2024/02/12 11:09:38;;;;;;;2.95;1.02;;;16.40;54.20;;;;;;5052736;28;20047;-69
2024/02/12 11:12:18;;;;;;;1.20;1.00;;;16.50;54.20;;;;;;5067295;28;20668;-62
2024/02/12 11:14:51;;;;;;;20.92;3.47;;;16.70;54.20;;;;;;5045817;28;20055;-66
2024/02/12 11:17:23;;;;;;;2.88;1.30;;;16.90;54.70;;;;;;5071977;28;20149;-67
2024/02/12 11:19:53;;;;;;;2.45;1.33;;;17.10;53.90;;;;;;5067442;28;20566;-63
2024/02/12 11:22:26;;;;;;;7.95;3.17;;;17.20;53.50;;;;;;5077580;28;20529;-67
2024/02/12 11:25:00;;;;;;;20.83;2.07;;;17.20;53.30;;;;;;5068786;28;20464;-68
2024/02/12 11:27:41;;;;;;;6.32;1.17;;;17.20;53.20;;;;;;5077224;28;20058;-70
2024/02/12 11:30:10;;;;;;;20.08;3.40;;;17.20;53.20;;;;;;5039397;28;20048;-64
2024/02/12 11:32:39;;;;;;;13.25;2.78;;;17.20;53.10;;;;;;5053815;28;21260;-63
2024/02/12 11:35:12;;;;;;;4.20;1.85;;;17.20;53.10;;;;;;5062688;28;20114;-67
2024/02/12 11:37:42;;;;;;;24.65;1.55;;;17.20;53.10;;;;;;5058716;28;20056;-64
2024/02/12 11:40:13;;;;;;;1.95;1.05;;;17.30;53.00;;;;;;5068757;28;20064;-66
2024/02/12 11:42:49;;;;;;;11.27;1.08;;;17.30;52.80;;;;;;5056042;28;20047;-63
2024/02/12 11:45:18;;;;;;;7.47;1.63;;;17.20;52.60;;;;;;5063712;28;20050;-62
2024/02/12 11:47:47;;;;;;;13.88;1.65;;;17.10;52.60;;;;;;5066420;28;20129;-63
2024/02/12 11:50:22;;;;;;;1.73;1.23;;;17.10;52.60;;;;;;5063640;28;20048;-63
2024/02/12 11:52:51;;;;;;;9.93;2.00;;;17.10;52.70;;;;;;5055211;28;20064;-65
2024/02/12 11:55:20;;;;;;;13.25;1.77;;;17.10;52.60;;;;;;5064065;28;20060;-62
2024/02/12 11:57:49;;;;;;;6.43;1.67;;;17.10;52.40;;;;;;5050125;28;20056;-63
2024/02/12 12:00:18;;;;;;;34.05;6.78;;;17.20;52.40;;;;;;5082202;28;20056;-64
2024/02/12 12:02:47;;;;;;;17.42;3.55;;;17.20;52.30;;;;;;5044598;28;20052;-64
2024/02/12 12:05:17;;;;;;;8.40;1.52;;;17.20;52.30;;;;;;5064883;28;20785;-65
2024/02/12 12:07:47;;;;;;;14.05;2.65;;;17.20;52.20;;;;;;5053097;28;20143;-64
2024/02/12 12:10:21;;;;;;;11.82;1.67;;;17.20;52.10;;;;;;5067143;28;20082;-64
2024/02/12 12:12:50;;;;;;;5.03;1.05;;;17.00;51.90;;;;;;5056691;28;20079;-64
2024/02/12 12:15:29;;;;;;;1.10;0.98;;;16.80;51.90;;;;;;5068143;28;20055;-70
2024/02/12 12:17:59;;;;;;;4.45;1.02;;;16.60;51.90;;;;;;5061152;28;20050;-72
2024/02/12 12:20:30;;;;;;;3.70;1.75;;;16.30;52.30;;;;;;5036331;28;20052;-69
2024/02/12 12:23:09;;;;;;;6.72;1.50;;;16.10;52.20;;;;;;5043801;28;21225;-73
2024/02/12 12:25:38;;;;;;;4.70;1.85;;;15.80;52.50;;;;;;5042138;28;20057;-85
2024/02/12 12:28:07;;;;;;;2.10;1.27;;;15.60;52.80;;;;;;5026390;28;20926;-69
2024/02/12 12:30:37;;;;;;;3.28;0.90;;;15.50;52.80;;;;;;5035542;28;20435;-74
2024/02/12 12:33:07;;;;;;;1.20;1.10;;;15.30;52.90;;;;;;5050817;28;20048;-70
2024/02/12 12:35:37;;;;;;;1.75;0.95;;;15.20;53.20;;;;;;5062591;28;20513;-65
2024/02/12 12:38:09;;;;;;;1.63;1.10;;;15.20;53.40;;;;;;5078448;28;20735;-66
2024/02/12 12:40:39;;;;;;;1.90;0.60;;;15.20;53.60;;;;;;5063206;28;20067;-68
2024/02/12 12:43:08;;;;;;;1.65;1.02;;;15.50;53.70;;;;;;5080389;28;20152;-72
2024/02/12 12:45:41;;;;;;;1.65;1.38;;;16.00;53.70;;;;;;5080242;28;20483;-71
2024/02/12 12:48:12;;;;;;;2.40;1.20;;;16.40;53.30;;;;;;5051510;28;20139;-73
2024/02/12 12:50:41;;;;;;;2.33;1.20;;;16.80;53.10;;;;;;5030648;28;20056;-67
2024/02/12 12:53:29;;;;;;;1.38;1.00;;;17.00;52.70;;;;;;5062508;28;20052;-66
2024/02/12 12:55:59;;;;;;;2.22;1.33;;;17.30;52.40;;;;;;5052421;28;20050;-66
2024/02/12 12:58:28;;;;;;;3.95;1.67;;;17.30;52.20;;;;;;5064512;28;20063;-67
2024/02/12 13:00:58;;;;;;;3.53;1.55;;;17.30;52.00;;;;;;5061097;28;20064;-70
2024/02/12 13:03:28;;;;;;;15.20;4.85;;;17.30;52.20;;;;;;5055167;28;20044;-70
2024/02/12 13:05:57;;;;;;;12.27;2.55;;;17.40;52.00;;;;;;5050579;28;20044;-72
2024/02/12 13:08:26;;;;;;;35.10;9.10;;;17.40;52.00;;;;;;5068923;28;20059;-69
2024/02/12 13:10:56;;;;;;;3.90;1.60;;;17.40;52.00;;;;;;5062640;28;20048;-69
2024/02/12 13:13:27;;;;;;;4.38;1.58;;;17.40;52.00;;;;;;5058884;28;20052;-71